Weather at Bergen Airport, Flesland

Public forecast

Using degrees Celsius for public forecast. Weather courtesy of forecast.io.

Current aviation weather report (METAR) for Bergen Airport, Flesland

2024/04/24 12:50 (retrieved 17 minutes ago)

ENBR 241250Z 31018KT 9999 FEW040TCU SCT050 07/M02 Q1009 TEMPO 35018G28KT RMK WIND 1200FT 34023KT

Aviation forecast (TAF) for Bergen Airport, Flesland

2024/04/24 12:36 (retrieved 31 minutes ago)

TAF ENBR 241100Z 2412/2512 35012KT 9999 FEW025 SCT045 TEMPO 2412/2416 35018G28KT BECMG 2418/2420 VRB05KT